Thunder radar more information blitzortung!


Radar de pluja more information rain snow radar


Visita la nostra xarxa de llocs de meteo:

Template documentation
and downloads

And another site



No particular awareness of the weather is required.    There are no Weather-warnings

Pagina Historial Weather Underground text

Diari Resum May 8, 2016 Unitats:  Mètric    Imperial   Tant
« Previous Dia
SegĂźent Dia »
Diari Setmana Mensual Anual Personalitzada
  Maxima: Minima: Media:
Temperatura: 16.3 °C 12.0 °C 14.5 °C
Punt de rosada: 14.9 °C 8.6 °C 12.4 °C
Humitat: 94 % 73 % 87 %
Wind Speed: 18.5 km/h 0.0 km/h 6.3 km/h
RĂ fegues de vent: 18.5 km/h - -
Vent:- - ENE
Pression baro: 1010.0 hPa 1007.0 hPa -
Precipitacions: 2.0 mm    
Historical Graphs
 
 
Dades de taula per May 8, 2016
Temps Temperatura Punt de rosada Pression baro Vent Wind Speed RĂ fegues de vent Humitat Rainfall Rate (Hourly)
00:02 13.9 °C 9.1 °C 1010.0 hPa ENE 2.3 km/h 2.3 km/h 73 % 0.0 mm
00:05 12.0 °C 8.7 °C 1008.0 hPa Calm   3.2 km/h 80 % 0.0 mm
00:07 13.9 °C 9.1 °C 1010.0 hPa ENE 2.6 km/h 2.6 km/h 73 % 0.0 mm
00:15 12.0 °C 8.7 °C 1008.0 hPa Calm     80 % 0.0 mm
00:25 12.1 °C 8.8 °C 1008.0 hPa Calm   1.6 km/h 80 % 0.0 mm
00:35 12.1 °C 8.6 °C 1008.0 hPa Calm   3.2 km/h 79 % 0.0 mm
00:45 12.1 °C 8.6 °C 1008.0 hPa SW 1.6 km/h 3.2 km/h 79 % 0.0 mm
00:55 12.1 °C 8.6 °C 1008.0 hPa Calm     79 % 0.0 mm
01:05 12.1 °C 8.6 °C 1008.0 hPa Calm   1.6 km/h 79 % 0.0 mm
01:15 12.1 °C 8.8 °C 1008.0 hPa Calm   1.6 km/h 80 % 0.0 mm
01:25 12.1 °C 8.8 °C 1008.0 hPa Calm     80 % 0.0 mm
01:35 12.2 °C 8.8 °C 1008.0 hPa Calm   1.6 km/h 80 % 0.0 mm
01:45 12.2 °C 8.8 °C 1008.0 hPa ESE 1.6 km/h 3.2 km/h 80 % 0.0 mm
01:55 12.2 °C 8.8 °C 1008.0 hPa South 1.6 km/h 3.2 km/h 80 % 0.0 mm
02:05 12.3 °C 8.9 °C 1008.0 hPa WSW 1.6 km/h 3.2 km/h 80 % 0.0 mm
02:15 12.4 °C 9.1 °C 1008.0 hPa WSW 1.6 km/h 3.2 km/h 80 % 0.0 mm
02:25 12.5 °C 8.9 °C 1008.0 hPa SW 3.2 km/h 3.2 km/h 79 % 0.0 mm
02:35 12.5 °C 9.2 °C 1008.0 hPa Calm   3.2 km/h 80 % 0.0 mm
02:45 12.6 °C 9.2 °C 1008.0 hPa Calm   3.2 km/h 80 % 0.0 mm
02:55 12.7 °C 9.3 °C 1008.0 hPa SW 1.6 km/h 3.2 km/h 80 % 0.0 mm
03:05 13.0 °C 9.4 °C 1008.0 hPa East 4.8 km/h 6.4 km/h 79 % 0.0 mm
03:15 13.1 °C 9.6 °C 1008.0 hPa ENE 1.6 km/h 3.2 km/h 79 % 0.0 mm
03:25 13.2 °C 9.6 °C 1008.0 hPa ENE 3.2 km/h 3.2 km/h 79 % 0.0 mm
03:35 13.2 °C 9.4 °C 1008.0 hPa East 3.2 km/h 4.8 km/h 78 % 0.0 mm
03:45 13.2 °C 9.4 °C 1009.0 hPa East 4.8 km/h 6.4 km/h 78 % 0.0 mm
03:55 13.2 °C 9.6 °C 1009.0 hPa East 4.8 km/h 6.4 km/h 79 % 0.0 mm
04:05 13.0 °C 9.6 °C 1009.0 hPa East 3.2 km/h 4.8 km/h 80 % 0.0 mm
04:15 12.9 °C 9.6 °C 1009.0 hPa SE 1.6 km/h 3.2 km/h 80 % 0.0 mm
04:25 12.7 °C 9.5 °C 1008.0 hPa Calm   3.2 km/h 81 % 0.0 mm
04:35 12.8 °C 10.0 °C 1008.0 hPa Calm   3.2 km/h 83 % 0.0 mm
04:45 12.7 °C 9.9 °C 1008.0 hPa SE 1.6 km/h 4.8 km/h 83 % 0.0 mm
04:55 12.8 °C 10.2 °C 1008.0 hPa ESE 3.2 km/h 4.8 km/h 84 % 0.0 mm
05:05 12.8 °C 10.0 °C 1008.0 hPa SE 3.2 km/h 3.2 km/h 83 % 0.0 mm
05:15 12.6 °C 9.9 °C 1008.0 hPa Calm   3.2 km/h 84 % 0.0 mm
05:25 12.7 °C 10.4 °C 1008.0 hPa NW 1.6 km/h 4.8 km/h 86 % 0.0 mm
05:35 12.7 °C 10.2 °C 1008.0 hPa NNE 1.6 km/h 3.2 km/h 85 % 0.0 mm
05:45 12.6 °C 10.2 °C 1008.0 hPa NE 3.2 km/h 4.8 km/h 85 % 0.0 mm
05:55 12.7 °C 10.4 °C 1008.0 hPa NE 1.6 km/h 3.2 km/h 86 % 0.0 mm
06:05 12.7 °C 10.4 °C 1008.0 hPa NNE 1.6 km/h 3.2 km/h 86 % 0.0 mm
06:15 12.7 °C 10.6 °C 1008.0 hPa NE 1.6 km/h 3.2 km/h 87 % 0.0 mm
11:22 12.8 °C 10.7 °C 1008.0 hPa ENE 2.6 km/h 2.6 km/h 87 % 0.0 mm
11:27 12.7 °C 10.6 °C 1008.0 hPa NE 3.9 km/h 3.9 km/h 87 % 0.0 mm
11:32 12.8 °C 10.8 °C 1008.0 hPa ENE 1.9 km/h   88 % 0.0 mm
11:37 12.9 °C 10.9 °C 1008.0 hPa NNE 3.7 km/h 3.7 km/h 88 % 0.0 mm
11:42 13.0 °C 11.1 °C 1008.0 hPa North 3.7 km/h   88 % 0.0 mm
11:47 13.0 °C 11.2 °C 1008.0 hPa ENE 2.3 km/h   89 % 0.0 mm
11:52 13.0 °C 11.2 °C 1008.0 hPa NE 4.2 km/h 4.2 km/h 89 % 0.0 mm
11:58 13.2 °C 11.4 °C 1008.0 hPa NE 3.7 km/h 3.7 km/h 89 % 0.0 mm
12:03 13.3 °C 11.5 °C 1008.0 hPa NE 3.7 km/h 3.7 km/h 89 % 0.0 mm
12:08 13.4 °C 11.8 °C 1008.0 hPa ENE 5.6 km/h 5.6 km/h 90 % 0.0 mm
12:13 13.5 °C 11.9 °C 1007.0 hPa ENE 7.9 km/h 7.9 km/h 90 % 0.0 mm
12:18 13.6 °C 12.0 °C 1007.0 hPa NNE 5.6 km/h 5.6 km/h 90 % 0.0 mm
12:23 13.6 °C 12.0 °C 1007.0 hPa ENE 5.3 km/h 5.3 km/h 90 % 1.0 mm
12:28 13.6 °C 12.0 °C 1007.0 hPa ESE 3.7 km/h 3.9 km/h 90 % 1.0 mm
12:33 13.7 °C 12.1 °C 1007.0 hPa ENE 5.6 km/h 5.6 km/h 90 % 1.0 mm
12:38 13.7 °C 12.1 °C 1007.0 hPa East 9.3 km/h 9.3 km/h 90 % 1.0 mm
12:43 13.8 °C 12.2 °C 1008.0 hPa ENE 9.3 km/h 9.3 km/h 90 % 1.0 mm
12:48 14.0 °C 12.4 °C 1008.0 hPa NE 6.4 km/h 6.4 km/h 90 % 1.0 mm
12:58 14.0 °C 12.6 °C 1008.0 hPa ENE 9.3 km/h 9.3 km/h 91 % 1.0 mm
13:03 14.1 °C 12.7 °C 1008.0 hPa ENE 9.3 km/h 9.3 km/h 91 % 1.0 mm
13:08 14.1 °C 12.7 °C 1008.0 hPa ENE 11.9 km/h 11.9 km/h 91 % 1.0 mm
13:13 14.2 °C 12.9 °C 1008.0 hPa East 7.4 km/h 7.4 km/h 92 % 1.0 mm
13:18 14.4 °C 13.1 °C 1008.0 hPa NE 7.4 km/h 7.4 km/h 92 % 1.0 mm
13:23 14.4 °C 13.1 °C 1008.0 hPa East 13.0 km/h 13.0 km/h 92 % 0.0 mm
13:28 14.5 °C 13.2 °C 1008.0 hPa ENE 4.7 km/h 4.7 km/h 92 % 0.0 mm
13:33 14.4 °C 13.1 °C 1008.0 hPa East 9.3 km/h 9.3 km/h 92 % 0.0 mm
13:38 14.4 °C 13.1 °C 1008.0 hPa East 11.4 km/h 11.4 km/h 92 % 0.0 mm
13:43 14.5 °C 13.2 °C 1008.0 hPa NE 3.7 km/h 3.7 km/h 92 % 0.0 mm
13:48 14.4 °C 13.1 °C 1008.0 hPa ENE 9.3 km/h 9.3 km/h 92 % 0.0 mm
13:53 14.5 °C 13.2 °C 1008.0 hPa ENE 5.6 km/h 5.6 km/h 92 % 0.0 mm
13:58 14.5 °C 13.2 °C 1008.0 hPa East 9.3 km/h 9.3 km/h 92 % 0.0 mm
14:03 14.5 °C 13.2 °C 1008.0 hPa ESE 9.3 km/h 9.3 km/h 92 % 0.0 mm
14:08 14.6 °C 13.3 °C 1008.0 hPa ENE 9.3 km/h 9.3 km/h 92 % 0.0 mm
14:18 14.6 °C 13.5 °C 1008.0 hPa NE 9.3 km/h 9.3 km/h 93 % 0.0 mm
14:23 14.9 °C 13.8 °C 1008.0 hPa ENE 7.4 km/h 7.4 km/h 93 % 0.0 mm
14:28 14.8 °C 13.7 °C 1008.0 hPa East 7.4 km/h 7.4 km/h 93 % 0.0 mm
14:33 14.8 °C 13.7 °C 1008.0 hPa NE 5.6 km/h 5.6 km/h 93 % 0.0 mm
14:38 14.8 °C 13.7 °C 1008.0 hPa East 3.7 km/h 4.2 km/h 93 % 0.0 mm
14:43 14.9 °C 13.8 °C 1008.0 hPa SE 3.7 km/h 3.7 km/h 93 % 0.0 mm
14:48 15.0 °C 13.9 °C 1008.0 hPa East 3.9 km/h 3.9 km/h 93 % 0.0 mm
14:53 15.1 °C 14.0 °C 1008.0 hPa East 5.6 km/h 5.6 km/h 93 % 0.0 mm
14:58 15.3 °C 14.3 °C 1007.0 hPa ESE 7.4 km/h 7.4 km/h 94 % 0.0 mm
15:03 15.3 °C 14.2 °C 1007.0 hPa ESE 9.3 km/h 9.3 km/h 93 % 0.0 mm
15:08 15.3 °C 14.2 °C 1007.0 hPa ENE 9.3 km/h 9.3 km/h 93 % 0.0 mm
15:13 15.3 °C 14.2 °C 1008.0 hPa ESE 4.7 km/h 4.7 km/h 93 % 0.0 mm
15:18 15.4 °C 14.3 °C 1008.0 hPa East 7.4 km/h 7.4 km/h 93 % 0.0 mm
15:23 15.6 °C 14.4 °C 1008.0 hPa ENE 5.6 km/h 5.6 km/h 93 % 0.0 mm
15:28 15.6 °C 14.4 °C 1008.0 hPa ENE 5.6 km/h 5.6 km/h 93 % 0.0 mm
15:33 15.8 °C 14.7 °C 1008.0 hPa East 5.6 km/h 5.6 km/h 93 % 1.0 mm
15:38 16.0 °C 14.9 °C 1008.0 hPa ENE 7.4 km/h 7.4 km/h 93 % 1.0 mm
15:43 16.0 °C 14.7 °C 1008.0 hPa ENE 7.4 km/h 7.4 km/h 92 % 1.0 mm
15:48 16.1 °C 14.8 °C 1008.0 hPa ENE 7.4 km/h 7.4 km/h 92 % 1.0 mm
15:53 16.2 °C 14.7 °C 1008.0 hPa NE 11.1 km/h 11.1 km/h 91 % 1.0 mm
15:58 16.1 °C 14.6 °C 1007.0 hPa East 9.3 km/h 9.3 km/h 91 % 1.0 mm
16:03 16.1 °C 14.4 °C 1007.0 hPa ESE 11.1 km/h 11.1 km/h 90 % 1.0 mm
16:08 16.1 °C 14.4 °C 1007.0 hPa ENE 9.3 km/h 9.3 km/h 90 % 1.0 mm
16:13 16.1 °C 14.4 °C 1007.0 hPa ESE 11.1 km/h 11.1 km/h 90 % 1.0 mm
16:18 16.1 °C 14.4 °C 1007.0 hPa ESE 11.9 km/h 11.9 km/h 90 % 1.0 mm
16:23 16.1 °C 14.3 °C 1007.0 hPa ESE 14.8 km/h 14.8 km/h 89 % 1.0 mm
16:28 16.1 °C 14.3 °C 1008.0 hPa East 11.1 km/h 11.1 km/h 89 % 1.0 mm
16:33 16.2 °C 14.4 °C 1008.0 hPa East 14.8 km/h 14.8 km/h 89 % 0.0 mm
16:38 16.3 °C 14.3 °C 1008.0 hPa ESE 14.8 km/h 14.8 km/h 88 % 0.0 mm
16:43 16.3 °C 14.3 °C 1008.0 hPa ESE 14.8 km/h 14.8 km/h 88 % 0.0 mm
16:48 16.2 °C 14.2 °C 1008.0 hPa East 11.1 km/h 11.1 km/h 88 % 0.0 mm
16:53 16.2 °C 14.4 °C 1008.0 hPa ESE 13.0 km/h 13.0 km/h 89 % 0.0 mm
16:58 16.1 °C 14.3 °C 1008.0 hPa ESE 14.8 km/h 14.8 km/h 89 % 0.0 mm
17:03 16.1 °C 14.3 °C 1008.0 hPa ESE 14.8 km/h 14.8 km/h 89 % 0.0 mm
17:08 16.0 °C 14.2 °C 1008.0 hPa East 18.5 km/h 18.5 km/h 89 % 0.0 mm
17:13 16.1 °C 14.3 °C 1008.0 hPa ESE 16.1 km/h 16.1 km/h 89 % 0.0 mm
17:18 16.1 °C 14.1 °C 1008.0 hPa East 13.0 km/h 13.0 km/h 88 % 0.0 mm
17:23 16.0 °C 13.8 °C 1008.0 hPa East 14.8 km/h 14.8 km/h 87 % 0.0 mm
17:28 16.0 °C 13.8 °C 1007.0 hPa East 16.9 km/h 16.9 km/h 87 % 0.0 mm
17:33 15.9 °C 13.6 °C 1007.0 hPa East 13.0 km/h 13.0 km/h 86 % 0.0 mm
17:38 15.9 °C 13.6 °C 1007.0 hPa ESE 13.0 km/h 13.0 km/h 86 % 0.0 mm
17:43 15.8 °C 13.3 °C 1007.0 hPa ESE 11.1 km/h 11.1 km/h 85 % 0.0 mm
17:48 15.9 °C 13.6 °C 1007.0 hPa ESE 9.3 km/h 9.3 km/h 86 % 0.0 mm
17:53 15.9 °C 13.6 °C 1007.0 hPa ESE 13.0 km/h 13.0 km/h 86 % 0.0 mm
17:58 15.8 °C 13.4 °C 1008.0 hPa ESE 11.1 km/h 11.1 km/h 86 % 0.0 mm
18:03 15.9 °C 13.6 °C 1008.0 hPa East 9.3 km/h 9.3 km/h 86 % 0.0 mm
18:08 15.9 °C 13.4 °C 1008.0 hPa East 9.3 km/h 9.3 km/h 85 % 0.0 mm
18:13 15.9 °C 13.4 °C 1008.0 hPa SW 9.3 km/h 9.3 km/h 85 % 0.0 mm
18:18 15.9 °C 13.4 °C 1008.0 hPa ESE 7.4 km/h 7.4 km/h 85 % 0.0 mm
18:23 15.8 °C 13.1 °C 1008.0 hPa SE 14.8 km/h 14.8 km/h 84 % 0.0 mm
18:28 15.8 °C 13.1 °C 1008.0 hPa ESE 6.1 km/h 6.1 km/h 84 % 0.0 mm
18:33 15.8 °C 13.1 °C 1008.0 hPa East 6.9 km/h 6.9 km/h 84 % 0.0 mm
18:38 15.7 °C 13.0 °C 1008.0 hPa ESE 9.3 km/h 9.3 km/h 84 % 0.0 mm
18:48 15.6 °C 12.9 °C 1007.0 hPa ESE 7.4 km/h 7.4 km/h 84 % 0.0 mm
18:53 15.6 °C 12.9 °C 1007.0 hPa East 7.4 km/h 7.4 km/h 84 % 0.0 mm
19:03 15.6 °C 12.9 °C 1008.0 hPa ENE 3.9 km/h 4.7 km/h 84 % 0.0 mm
19:08 15.5 °C 12.8 °C 1008.0 hPa ENE 3.9 km/h 4.7 km/h 84 % 0.0 mm
19:13 15.5 °C 12.8 °C 1008.0 hPa ENE 3.9 km/h 4.7 km/h 84 % 0.0 mm
19:15 14.6 °C 12.8 °C 1009.0 hPa NE 8.0 km/h 8.0 km/h 89 % 0.0 mm
19:18 15.4 °C 12.7 °C 1008.0 hPa ENE 3.9 km/h 4.7 km/h 84 % 0.0 mm
19:23 15.4 °C 12.7 °C 1008.0 hPa ENE 3.9 km/h 4.7 km/h 84 % 0.0 mm
19:28 15.3 °C 12.6 °C 1008.0 hPa ENE 3.9 km/h 4.7 km/h 84 % 0.0 mm
19:33 15.3 °C 12.8 °C 1008.0 hPa ENE 3.9 km/h 4.7 km/h 85 % 0.0 mm
19:35 14.6 °C 12.8 °C 1009.0 hPa NNE 8.0 km/h 9.7 km/h 89 % 0.0 mm
19:38 15.3 °C 12.8 °C 1008.0 hPa ENE 5.6 km/h 6.9 km/h 85 % 0.0 mm
19:43 15.3 °C 12.8 °C 1008.0 hPa ENE 5.6 km/h 6.9 km/h 85 % 0.0 mm
19:45 14.6 °C 12.8 °C 1009.0 hPa NNE 8.0 km/h 9.7 km/h 89 % 0.0 mm
19:48 15.2 °C 12.9 °C 1008.0 hPa ENE 5.6 km/h 6.9 km/h 86 % 0.0 mm
19:53 15.1 °C 12.8 °C 1008.0 hPa ENE 5.6 km/h 6.9 km/h 86 % 0.0 mm
19:55 14.6 °C 12.8 °C 1009.0 hPa NNE 4.8 km/h 6.4 km/h 89 % 0.0 mm
19:58 15.1 °C 12.9 °C 1008.0 hPa ENE 5.6 km/h 6.9 km/h 87 % 0.0 mm
20:03 15.1 °C 12.9 °C 1008.0 hPa ENE 5.6 km/h 6.9 km/h 87 % 0.0 mm
20:05 14.6 °C 12.6 °C 1009.0 hPa NNE 4.8 km/h 8.0 km/h 88 % 0.0 mm
20:08 15.0 °C 12.8 °C 1008.0 hPa ENE 5.6 km/h 6.9 km/h 87 % 0.0 mm
20:13 15.0 °C 12.8 °C 1008.0 hPa ENE 5.6 km/h 6.9 km/h 87 % 0.0 mm
20:15 14.7 °C 12.7 °C 1008.0 hPa NNE 4.8 km/h 4.8 km/h 88 % 0.0 mm
20:18 15.0 °C 13.0 °C 1008.0 hPa ENE 5.6 km/h 6.9 km/h 88 % 0.0 mm
20:23 14.9 °C 12.9 °C 1008.0 hPa ENE 5.6 km/h 5.6 km/h 88 % 0.0 mm
20:25 14.7 °C 12.7 °C 1009.0 hPa NNE 8.0 km/h 8.0 km/h 88 % 0.0 mm
20:28 14.9 °C 12.9 °C 1008.0 hPa ENE 6.4 km/h 6.4 km/h 88 % 0.0 mm
20:33 14.9 °C 12.9 °C 1008.0 hPa ENE 7.4 km/h 7.4 km/h 88 % 0.0 mm
20:35 14.7 °C 12.7 °C 1009.0 hPa NNE 8.0 km/h 8.0 km/h 88 % 0.0 mm
20:38 14.8 °C 12.8 °C 1008.0 hPa ENE 3.7 km/h 3.9 km/h 88 % 0.0 mm
20:43 14.8 °C 13.0 °C 1008.0 hPa NNE 7.4 km/h 7.4 km/h 89 % 0.0 mm
20:45 14.7 °C 12.7 °C 1008.0 hPa NNE 3.2 km/h 6.4 km/h 88 % 0.0 mm
20:48 14.8 °C 13.0 °C 1008.0 hPa ENE 5.6 km/h 6.1 km/h 89 % 0.0 mm
20:53 14.8 °C 13.0 °C 1008.0 hPa ENE 5.6 km/h 6.1 km/h 89 % 0.0 mm
20:55 14.7 °C 12.7 °C 1008.0 hPa NE 4.8 km/h 8.0 km/h 88 % 0.0 mm
20:58 14.7 °C 12.9 °C 1008.0 hPa ENE 5.6 km/h 5.6 km/h 89 % 0.0 mm
21:03 14.7 °C 12.9 °C 1008.0 hPa ENE 4.2 km/h 5.3 km/h 89 % 0.0 mm
21:05 14.8 °C 12.7 °C 1008.0 hPa ENE 4.8 km/h 9.7 km/h 87 % 0.0 mm
21:08 14.6 °C 12.8 °C 1008.0 hPa ENE 4.2 km/h 5.3 km/h 89 % 0.0 mm
21:13 14.6 °C 13.0 °C 1008.0 hPa ENE 4.2 km/h 5.3 km/h 90 % 0.0 mm
21:15 14.8 °C 12.7 °C 1009.0 hPa NE 3.2 km/h 4.8 km/h 87 % 0.0 mm
21:18 14.6 °C 12.8 °C 1008.0 hPa ENE 4.2 km/h 5.3 km/h 89 % 0.0 mm
21:23 14.5 °C 12.9 °C 1008.0 hPa ENE 4.2 km/h 5.3 km/h 90 % 0.0 mm
21:25 14.8 °C 12.7 °C 1008.0 hPa NE 3.2 km/h 6.4 km/h 87 % 0.0 mm
21:28 14.5 °C 12.7 °C 1008.0 hPa ENE 3.7 km/h 6.4 km/h 89 % 0.0 mm
21:33 14.5 °C 12.7 °C 1008.0 hPa NNE 5.0 km/h 5.3 km/h 89 % 0.0 mm
21:38 14.5 °C 12.9 °C 1008.0 hPa ENE 6.1 km/h 6.1 km/h 90 % 0.0 mm
21:43 14.4 °C 12.8 °C 1008.0 hPa ENE 5.6 km/h 5.6 km/h 90 % 0.0 mm
21:45 14.9 °C 12.8 °C 1008.0 hPa NE 4.8 km/h 6.4 km/h 87 % 0.0 mm
21:48 14.4 °C 12.8 °C 1008.0 hPa NNE 9.5 km/h 9.5 km/h 90 % 0.0 mm
21:55 14.9 °C 12.6 °C 1008.0 hPa NE 4.8 km/h 9.7 km/h 86 % 0.0 mm
21:58 14.4 °C 12.8 °C 1008.0 hPa ENE 7.4 km/h 7.4 km/h 90 % 0.0 mm
22:03 14.4 °C 12.8 °C 1008.0 hPa ENE 7.4 km/h 7.4 km/h 90 % 0.0 mm
22:05 14.8 °C 12.5 °C 1008.0 hPa NE 9.7 km/h 9.7 km/h 86 % 0.0 mm
22:08 14.4 °C 12.8 °C 1008.0 hPa ENE 7.4 km/h 7.4 km/h 90 % 0.0 mm
22:13 14.4 °C 12.8 °C 1008.0 hPa NNE 4.2 km/h 4.2 km/h 90 % 0.0 mm
22:15 14.8 °C 12.7 °C 1008.0 hPa NNE 4.8 km/h 8.0 km/h 87 % 0.0 mm
22:18 14.4 °C 12.8 °C 1008.0 hPa NNE 5.6 km/h 5.6 km/h 90 % 0.0 mm
22:23 14.4 °C 12.8 °C 1008.0 hPa ENE 4.7 km/h 4.7 km/h 90 % 0.0 mm
22:25 14.8 °C 12.7 °C 1008.0 hPa NE 4.8 km/h 8.0 km/h 87 % 0.0 mm
22:28 14.4 °C 12.8 °C 1008.0 hPa NNE 7.4 km/h 7.4 km/h 90 % 0.0 mm
22:35 14.8 °C 12.7 °C 1008.0 hPa NE 9.7 km/h 9.7 km/h 87 % 0.0 mm
22:43 14.4 °C 12.8 °C 1009.0 hPa ENE 7.4 km/h 7.4 km/h 90 % 0.0 mm
22:45 14.8 °C 12.7 °C 1008.0 hPa ENE 9.7 km/h 9.7 km/h 87 % 0.0 mm
22:48 14.5 °C 12.9 °C 1009.0 hPa NE 1.9 km/h 5.0 km/h 90 % 0.0 mm
22:53 14.5 °C 12.9 °C 1009.0 hPa ENE 5.6 km/h 5.6 km/h 90 % 0.0 mm
22:55 14.8 °C 12.8 °C 1008.0 hPa ENE 4.8 km/h 9.7 km/h 88 % 0.0 mm
23:03 14.5 °C 12.9 °C 1009.0 hPa ENE 7.4 km/h 7.4 km/h 90 % 0.0 mm
23:05 14.9 °C 12.9 °C 1008.0 hPa ENE 4.8 km/h 9.7 km/h 88 % 0.0 mm
23:08 14.5 °C 12.9 °C 1009.0 hPa ENE 7.4 km/h 7.4 km/h 90 % 0.0 mm
23:13 14.5 °C 12.9 °C 1010.0 hPa NE 5.6 km/h 5.8 km/h 90 % 0.0 mm
23:15 14.9 °C 12.9 °C 1008.0 hPa ENE 4.8 km/h 6.4 km/h 88 % 0.0 mm
23:18 14.5 °C 12.9 °C 1010.0 hPa ENE 9.3 km/h 9.3 km/h 90 % 0.0 mm
23:23 14.5 °C 12.9 °C 1010.0 hPa ENE 9.5 km/h 9.5 km/h 90 % 0.0 mm
23:25 15.0 °C 13.0 °C 1008.0 hPa NE 9.7 km/h 11.3 km/h 88 % 0.0 mm
23:28 14.5 °C 12.9 °C 1009.0 hPa ENE 9.5 km/h 9.5 km/h 90 % 0.0 mm
23:33 14.5 °C 12.7 °C 1009.0 hPa NNE 5.6 km/h 6.1 km/h 89 % 0.0 mm
23:35 15.0 °C 13.0 °C 1008.0 hPa NE 9.7 km/h 12.9 km/h 88 % 0.0 mm
23:38 14.5 °C 12.7 °C 1009.0 hPa NNE 5.6 km/h 6.1 km/h 89 % 0.0 mm
23:43 14.5 °C 12.7 °C 1009.0 hPa NNE 5.6 km/h 6.1 km/h 89 % 0.0 mm
23:45 15.0 °C 13.2 °C 1008.0 hPa ENE 4.8 km/h 9.7 km/h 89 % 0.0 mm
23:48 14.5 °C 12.7 °C 1009.0 hPa NNE 5.6 km/h 6.1 km/h 89 % 0.0 mm
23:55 15.0 °C 13.0 °C 1008.0 hPa ENE 9.7 km/h 12.9 km/h 88 % 0.0 mm
23:58 14.6 °C 12.8 °C 1009.0 hPa NNE 5.6 km/h 6.1 km/h 89 % 0.0 mm
Meteo Sesrovires
Elogis d' Weather Underground - 3.5 mb

Guio original per  Jim McMurry - jmcmurry@mwt.net Adaptat per a la plantilla per  Wim van der Kuil - Leuven-Template.eu

Trobareu la nostra informacio del temps tambe a:

Weather Underground

AWEKAS